EBOS/OST METAR and TAF weather

Enter ICAO airport designator
Station Type Date Time Source
EBOS METAR 2018/07/21 11:20 UTC NOAA

EBOS 211120Z 34009KT CAVOK 22/13 Q1014 NOSIG


Station Type Date Time Source
EBOS Decoded METAR 2018/07/21 11:20 UTC NOAA

Oostende Airport , Belgium (EBOS) 51-12N 002-52E 5M
Jul 21, 2018 - 07:20 AM EDT / 2018.07.21 1120 UTC
Wind: from the NNW (340 degrees) at 10 MPH (9 KT):0
Visibility: greater than 7 mile(s):0
Temperature: 71 F (22 C)
Dew Point: 55 F (13 C)
Relative Humidity: 56%
Pressure (altimeter): 29.94 in. Hg (1014 hPa)
ob: EBOS 211120Z 34009KT CAVOK 22/13 Q1014 NOSIG
cycle: 11

Station Type Date Time Source
EBOS TAF 2018/07/21 12:27 UTC NOAA

TAF EBOS 211130Z 2112/2218 33008KT 9999 FEW040


Example: see airport list